Time;durP1;ratioP1;P1;durP2;ratioP2;P2;SDS_P1;SDS_P2;PMS_P1;PMS_P2;Temp;Humidity;BMP_temperature;BMP_pressure;BME280_temperature;BME280_humidity;BME280_pressure;Samples;Min_cycle;Max_cycle;Signal;HPM_P1;HPM_P2
2022/07/06 00:02:23;;;;;;;2.80;0.80;;;;;;;15.77;100.00;102415.53;5022062;28;20274;-74
2022/07/06 00:04:48;;;;;;;3.53;0.90;;;;;;;15.45;100.00;102356.53;5022360;28;20555;-73
2022/07/06 00:07:14;;;;;;;1.60;0.70;;;;;;;15.81;100.00;102413.28;5022156;28;20647;-73
2022/07/06 00:09:41;;;;;;;3.77;0.77;;;;;;;15.76;100.00;102407.59;5022301;28;20720;-73
2022/07/06 00:12:06;;;;;;;1.83;1.00;;;;;;;15.76;100.00;102402.19;5021041;28;20176;-73
2022/07/06 00:14:32;;;;;;;1.93;1.10;;;;;;;15.80;100.00;102411.59;5022567;28;20519;-73
2022/07/06 00:16:58;;;;;;;2.50;0.80;;;;;;;15.61;100.00;102396.84;5021675;28;20217;-73
2022/07/06 00:19:23;;;;;;;1.80;0.80;;;;;;;15.66;100.00;102426.03;5002764;28;20470;-74
2022/07/06 00:21:48;;;;;;;3.70;0.90;;;;;;;15.62;100.00;102394.97;5020699;28;20192;-74
2022/07/06 00:24:14;;;;;;;2.50;0.90;;;;;;;15.65;100.00;102414.38;5021611;28;20188;-72
2022/07/06 00:26:39;;;;;;;2.07;0.83;;;;;;;15.76;100.00;102397.63;5021405;28;20977;-73
2022/07/06 00:29:05;;;;;;;3.70;1.00;;;;;;;15.66;100.00;102380.88;5021340;28;20180;-73
2022/07/06 00:31:30;;;;;;;4.20;1.13;;;;;;;15.54;100.00;102377.84;5018269;28;20189;-73
2022/07/06 00:33:55;;;;;;;2.83;0.90;;;;;;;15.36;100.00;102363.94;5017777;28;20196;-73
2022/07/06 00:36:21;;;;;;;5.47;1.10;;;;;;;15.75;100.00;102422.16;5016896;28;20180;-73
2022/07/06 00:38:46;;;;;;;1.63;0.70;;;;;;;15.69;100.00;102417.53;5019333;28;20644;-73
2022/07/06 00:41:13;;;;;;;3.77;0.90;;;;;;;15.77;100.00;102422.81;5016706;28;20185;-73
2022/07/06 00:43:48;;;;;;;2.27;0.90;;;;;;;15.78;100.00;102416.38;5016618;28;20649;-73
2022/07/06 00:46:14;;;;;;;2.10;0.80;;;;;;;15.65;100.00;102417.06;5018628;28;21034;-73
2022/07/06 00:48:39;;;;;;;2.97;0.77;;;;;;;15.49;100.00;102379.47;5016891;28;20470;-73
2022/07/06 00:51:04;;;;;;;2.37;0.70;;;;;;;15.67;100.00;102416.84;5015687;28;20192;-72
2022/07/06 00:53:30;;;;;;;3.10;0.60;;;;;;;15.66;100.00;102399.81;5017395;28;20468;-73
2022/07/06 00:55:56;;;;;;;4.73;0.80;;;;;;;15.63;100.00;102400.19;5017537;28;20207;-73
2022/07/06 00:58:21;;;;;;;5.70;1.10;;;;;;;15.45;100.00;102387.13;5018452;28;20204;-73
2022/07/06 01:00:46;;;;;;;0.87;0.70;;;;;;;15.31;100.00;102372.66;5018483;28;20193;-73
2022/07/06 01:03:12;;;;;;;1.53;0.70;;;;;;;15.62;100.00;102411.19;5015154;28;20189;-73
2022/07/06 01:05:37;;;;;;;1.73;0.83;;;;;;;15.61;100.00;102415.78;5018482;28;20212;-73
2022/07/06 01:08:03;;;;;;;1.17;0.70;;;;;;;15.51;100.00;102402.59;5018824;28;20204;-73
2022/07/06 01:10:28;;;;;;;2.33;0.70;;;;;;;15.55;100.00;102392.19;5021856;28;20578;-73
2022/07/06 01:12:56;;;;;;;2.73;0.93;;;;;;;15.57;100.00;102401.81;5017240;28;20203;-73
2022/07/06 01:15:24;;;;;;;3.53;0.83;;;;;;;15.64;100.00;102403.72;5016278;28;20188;-73
2022/07/06 01:17:49;;;;;;;0.90;0.60;;;;;;;15.55;100.00;102403.84;5017624;28;20472;-73
2022/07/06 01:20:15;;;;;;;1.33;0.80;;;;;;;15.55;100.00;102394.91;5015590;28;20820;-73
2022/07/06 01:22:42;;;;;;;2.10;0.60;;;;;;;15.65;100.00;102410.81;5014819;28;20192;-73
2022/07/06 01:25:08;;;;;;;1.93;0.60;;;;;;;15.52;100.00;102401.53;5017101;28;20451;-73
2022/07/06 01:27:39;;;;;;;0.80;0.60;;;;;;;15.42;100.00;102400.19;5016975;28;21365;-73
2022/07/06 01:30:16;;;;;;;1.43;0.77;;;;;;;15.12;100.00;102360.59;5017450;28;20215;-73
2022/07/06 01:32:42;;;;;;;1.43;0.70;;;;;;;15.52;100.00;102412.34;5015202;28;20889;-73
2022/07/06 01:35:10;;;;;;;2.93;0.80;;;;;;;15.50;100.00;102405.47;5015558;28;20475;-72
2022/07/06 01:37:36;;;;;;;2.53;0.80;;;;;;;14.98;100.00;102322.81;5017511;28;20471;-73
2022/07/06 01:40:04;;;;;;;2.50;0.90;;;;;;;15.46;100.00;102405.03;5018542;28;20494;-74
2022/07/06 01:42:30;;;;;;;1.77;0.80;;;;;;;15.34;100.00;102398.47;5017811;28;20443;-73
2022/07/06 01:44:56;;;;;;;2.20;0.70;;;;;;;15.30;100.00;102373.69;5017849;28;20505;-73
2022/07/06 01:47:22;;;;;;;2.73;0.73;;;;;;;15.48;100.00;102394.03;5016072;28;21279;-74
2022/07/06 01:49:48;;;;;;;3.40;0.80;;;;;;;15.03;100.00;102339.28;5014732;28;20216;-73
2022/07/06 01:52:13;;;;;;;3.00;0.70;;;;;;;15.40;100.00;102402.25;5017693;28;20531;-73
2022/07/06 01:54:39;;;;;;;1.40;0.70;;;;;;;14.95;100.00;102328.59;5001365;28;20196;-73
2022/07/06 01:57:04;;;;;;;2.47;1.27;;;;;;;15.31;100.00;102396.13;5017861;28;20204;-73
2022/07/06 01:59:30;;;;;;;3.17;0.80;;;;;;;15.32;100.00;102401.34;5017634;28;20567;-73
2022/07/06 02:01:55;;;;;;;0.90;0.73;;;;;;;15.08;100.00;102359.31;5016787;28;20207;-73
2022/07/06 02:04:21;;;;;;;2.50;0.90;;;;;;;15.47;100.00;102392.34;5016354;28;20206;-73
2022/07/06 02:06:46;;;;;;;2.10;0.73;;;;;;;15.57;100.00;102393.69;5014231;28;20722;-74
2022/07/06 02:09:12;;;;;;;2.40;0.70;;;;;;;14.78;100.00;102282.06;5016531;28;20665;-73
2022/07/06 02:11:37;;;;;;;3.17;1.00;;;;;;;15.01;100.00;102303.50;5014123;28;20341;-73
2022/07/06 02:14:03;;;;;;;1.47;0.70;;;;;;;15.21;100.00;102353.19;5017242;28;20311;-73
2022/07/06 02:16:28;;;;;;;1.47;0.80;;;;;;;14.89;100.00;102282.41;5016756;28;20192;-73
2022/07/06 02:18:53;;;;;;;1.23;0.60;;;;;;;15.38;100.00;102380.81;5017283;28;20199;-73
2022/07/06 02:21:19;;;;;;;1.60;0.90;;;;;;;15.17;100.00;102370.84;5015805;28;20637;-74
2022/07/06 02:23:44;;;;;;;1.97;0.90;;;;;;;15.44;100.00;102387.31;5017130;28;21063;-71
2022/07/06 02:26:10;;;;;;;1.23;0.80;;;;;;;15.47;100.00;102385.06;5015233;28;20217;-71
2022/07/06 02:28:35;;;;;;;1.33;0.70;;;;;;;15.16;100.00;102347.53;5005366;28;20248;-71
2022/07/06 02:31:01;;;;;;;2.03;0.73;;;;;;;15.33;100.00;102394.06;5018870;28;20219;-71
2022/07/06 02:33:26;;;;;;;1.47;0.70;;;;;;;15.38;100.00;102381.63;5024821;28;20654;-72
2022/07/06 02:35:51;;;;;;;4.43;1.10;;;;;;;15.28;100.00;102385.72;5020874;28;20192;-71
2022/07/06 02:38:17;;;;;;;3.77;0.90;;;;;;;15.32;100.00;102373.47;5019999;28;20632;-71
2022/07/06 02:40:42;;;;;;;2.20;0.90;;;;;;;15.20;100.00;102353.41;5020594;28;20655;-71
2022/07/06 02:43:08;;;;;;;3.70;1.00;;;;;;;15.40;100.00;102388.75;5020238;28;20208;-70
2022/07/06 02:45:33;;;;;;;2.70;0.80;;;;;;;15.34;100.00;102393.06;5019755;28;20212;-71
2022/07/06 02:47:59;;;;;;;1.80;0.90;;;;;;;15.34;100.00;102388.47;5020950;28;20213;-70
2022/07/06 02:50:25;;;;;;;2.80;0.90;;;;;;;15.03;100.00;102328.47;5019606;28;20291;-71
2022/07/06 02:52:50;;;;;;;1.90;0.80;;;;;;;15.01;100.00;102323.25;5020378;28;20193;-71
2022/07/06 02:55:16;;;;;;;2.10;0.80;;;;;;;15.39;100.00;102385.19;5018230;28;20457;-71
2022/07/06 02:57:42;;;;;;;1.93;0.77;;;;;;;15.46;100.00;102383.38;5020038;28;20584;-71
2022/07/06 03:00:09;;;;;;;2.70;0.90;;;;;;;15.27;100.00;102381.31;5017269;28;21004;-71
2022/07/06 03:02:34;;;;;;;1.40;0.60;;;;;;;15.22;100.00;102381.91;5022441;28;20196;-71
2022/07/06 03:05:00;;;;;;;6.80;0.80;;;;;;;14.80;100.00;102304.34;5019640;28;20444;-71
2022/07/06 03:07:25;;;;;;;5.63;0.90;;;;;;;15.28;100.00;102386.53;5018807;28;20220;-71
2022/07/06 03:09:51;;;;;;;3.23;0.90;;;;;;;15.51;100.00;102383.66;5018180;28;20283;-71
2022/07/06 03:12:16;;;;;;;2.70;0.90;;;;;;;14.83;100.00;102287.75;5017553;28;20188;-71
2022/07/06 03:14:42;;;;;;;1.57;0.90;;;;;;;15.35;100.00;102383.91;5021540;28;20230;-72
2022/07/06 03:17:08;;;;;;;7.63;0.80;;;;;;;15.59;100.00;102398.88;5019727;28;20252;-71
2022/07/06 03:19:33;;;;;;;1.37;0.70;;;;;;;14.60;100.00;102283.34;5021238;28;20271;-71
2022/07/06 03:21:58;;;;;;;3.07;1.10;;;;;;;15.27;100.00;102394.84;5020987;28;20180;-71
2022/07/06 03:24:24;;;;;;;2.67;1.00;;;;;;;15.14;100.00;102380.16;5018368;28;20193;-71
2022/07/06 03:26:49;;;;;;;3.57;0.90;;;;;;;15.20;100.00;102351.53;5020738;28;20316;-71
2022/07/06 03:29:15;;;;;;;3.90;1.00;;;;;;;15.13;100.00;102356.88;5024705;28;20188;-71
2022/07/06 03:31:40;;;;;;;2.53;1.10;;;;;;;14.66;100.00;102298.78;5022229;28;20191;-71
2022/07/06 03:34:06;;;;;;;2.10;1.00;;;;;;;15.28;100.00;102400.06;5022816;28;20188;-71
2022/07/06 03:36:31;;;;;;;2.83;0.90;;;;;;;15.30;100.00;102402.56;5022372;28;20173;-71
2022/07/06 03:38:57;;;;;;;3.33;0.90;;;;;;;15.10;100.00;102335.63;5021301;28;20700;-71
2022/07/06 03:41:22;;;;;;;1.43;0.70;;;;;;;15.42;100.00;102394.78;5022814;28;20193;-71
2022/07/06 03:43:47;;;;;;;1.50;0.70;;;;;;;15.20;100.00;102356.09;5024059;28;20672;-71
2022/07/06 03:46:13;;;;;;;3.83;1.10;;;;;;;15.40;100.00;102399.56;5021887;28;20246;-71
2022/07/06 03:48:38;;;;;;;5.67;0.70;;;;;;;15.26;100.00;102375.06;5020002;28;20694;-70
2022/07/06 03:51:04;;;;;;;1.50;0.60;;;;;;;15.31;100.00;102390.72;5022829;28;20185;-71
2022/07/06 03:53:29;;;;;;;2.10;0.83;;;;;;;15.02;100.00;102330.34;5022626;28;20324;-71
2022/07/06 03:58:57;;;;;;;2.13;0.80;;;;;;;15.39;100.00;102382.50;4906597;29;20871;-72
2022/07/06 04:01:23;;;;;;;2.20;0.73;;;;;;;15.42;100.00;102387.53;4996709;28;20943;-73
2022/07/06 04:03:48;;;;;;;1.60;0.83;;;;;;;15.41;100.00;102385.81;5024247;28;20433;-72
2022/07/06 04:06:14;;;;;;;2.00;0.73;;;;;;;14.83;100.00;102301.25;5019461;28;20263;-73
2022/07/06 04:08:39;;;;;;;3.67;0.90;;;;;;;15.24;100.00;102373.59;5022502;28;20350;-73
2022/07/06 04:11:05;;;;;;;1.73;1.00;;;;;;;15.26;100.00;102361.56;5022174;28;20805;-74
2022/07/06 04:13:30;;;;;;;0.90;0.70;;;;;;;14.97;100.00;102311.16;5021394;28;20303;-74
2022/07/06 04:15:56;;;;;;;2.10;0.90;;;;;;;15.23;100.00;102396.25;5018254;28;20178;-71
2022/07/06 04:18:21;;;;;;;2.00;0.80;;;;;;;15.29;100.00;102399.03;5016810;28;20216;-72
2022/07/06 04:20:47;;;;;;;4.27;0.80;;;;;;;15.41;100.00;102404.75;5018325;28;20250;-71
2022/07/06 04:23:12;;;;;;;3.87;1.20;;;;;;;15.13;100.00;102366.84;5019860;28;20308;-73
2022/07/06 04:25:37;;;;;;;3.33;1.20;;;;;;;14.74;100.00;102316.75;5001336;28;20216;-70
2022/07/06 04:28:03;;;;;;;1.53;0.70;;;;;;;15.29;100.00;102409.84;5001481;28;20215;-71
2022/07/06 04:30:29;;;;;;;2.20;0.90;;;;;;;15.10;100.00;102402.34;5015378;28;20196;-72
2022/07/06 04:32:55;;;;;;;3.20;0.90;;;;;;;15.11;100.00;102415.69;5015569;28;20184;-72
2022/07/06 04:35:21;;;;;;;2.90;0.80;;;;;;;14.83;100.00;102357.97;5003449;28;20681;-74
2022/07/06 04:37:46;;;;;;;0.83;0.60;;;;;;;15.14;100.00;102400.94;4996344;28;20467;-73
2022/07/06 04:40:12;;;;;;;2.20;0.60;;;;;;;15.14;100.00;102399.06;5012775;28;20189;-74
2022/07/06 04:42:38;;;;;;;1.83;0.63;;;;;;;15.01;100.00;102396.22;5020040;28;20189;-73
2022/07/06 04:45:04;;;;;;;2.23;0.70;;;;;;;15.23;100.00;102405.19;5021043;28;20802;-75
2022/07/06 04:47:30;;;;;;;1.53;0.60;;;;;;;15.07;100.00;102392.78;5021878;28;20300;-73
2022/07/06 04:49:55;;;;;;;1.50;0.80;;;;;;;14.89;100.00;102349.94;5023190;28;20527;-75
2022/07/06 04:52:21;;;;;;;3.90;0.93;;;;;;;14.66;100.00;102314.97;5020608;28;20184;-73
2022/07/06 04:54:46;;;;;;;7.80;1.00;;;;;;;14.88;100.00;102352.84;5022393;28;20629;-73
2022/07/06 04:57:11;;;;;;;2.40;0.80;;;;;;;15.02;100.00;102367.34;5022717;28;20657;-73
2022/07/06 04:59:37;;;;;;;4.20;0.80;;;;;;;15.32;100.00;102403.22;5020761;28;20195;-70
2022/07/06 05:02:02;;;;;;;2.20;0.70;;;;;;;15.07;100.00;102371.16;5020646;28;20192;-71
2022/07/06 05:04:28;;;;;;;1.57;0.70;;;;;;;15.29;100.00;102409.84;5019902;28;20188;-71
2022/07/06 05:06:53;;;;;;;1.90;0.60;;;;;;;15.15;100.00;102398.03;5019353;28;20208;-72
2022/07/06 05:09:18;;;;;;;2.13;0.73;;;;;;;15.21;100.00;102404.53;5020888;28;20202;-71
2022/07/06 05:11:44;;;;;;;3.47;0.80;;;;;;;15.37;100.00;102415.13;5020010;28;20196;-71
2022/07/06 05:14:10;;;;;;;3.10;0.93;;;;;;;15.31;100.00;102409.66;5021502;28;20184;-71
2022/07/06 05:16:35;;;;;;;2.17;1.00;;;;;;;15.16;100.00;102407.00;5018673;28;20204;-73
2022/07/06 05:19:01;;;;;;;4.83;0.90;;;;;;;15.37;100.00;102407.00;5019150;28;20192;-74
2022/07/06 05:21:26;;;;;;;1.63;0.80;;;;;;;15.32;100.00;102412.16;5019025;28;20262;-74
2022/07/06 05:23:51;;;;;;;2.87;0.60;;;;;;;15.62;100.00;102400.38;5019925;28;20199;-74
2022/07/06 05:26:17;;;;;;;2.23;0.70;;;;;;;15.55;100.00;102405.72;5019573;28;20213;-74
2022/07/06 05:28:42;;;;;;;1.67;0.60;;;;;;;15.27;100.00;102338.06;5018568;28;20196;-74
2022/07/06 05:31:08;;;;;;;1.63;0.80;;;;;;;15.57;100.00;102380.16;5017763;28;20279;-74
2022/07/06 05:33:33;;;;;;;1.63;0.70;;;;;;;15.43;100.00;102372.97;5005394;28;20191;-72
2022/07/06 05:35:59;;;;;;;2.40;1.00;;;;;;;15.50;100.00;102398.19;5020939;28;20184;-71
2022/07/06 05:38:24;;;;;;;3.47;0.90;;;;;;;15.62;100.00;102411.19;5019578;28;20657;-72
2022/07/06 05:40:50;;;;;;;2.30;0.80;;;;;;;15.72;100.00;102412.56;5021296;28;20189;-71
2022/07/06 05:43:16;;;;;;;3.20;0.80;;;;;;;15.85;100.00;102401.00;5020155;28;20188;-71
2022/07/06 05:45:41;;;;;;;2.67;0.90;;;;;;;15.86;100.00;102412.69;5021185;28;20673;-71
2022/07/06 05:50:50;;;;;;;3.07;1.07;;;;;;;15.76;100.00;102405.72;5019517;28;20179;-75
2022/07/06 05:53:16;;;;;;;3.70;1.00;;;;;;;15.75;100.00;102412.19;5018855;28;20436;-73
2022/07/06 05:55:41;;;;;;;4.27;0.90;;;;;;;15.55;100.00;102416.53;5001895;28;20246;-74
2022/07/06 05:58:07;;;;;;;3.33;0.97;;;;;;;15.65;100.00;102422.47;5021227;28;20204;-73
2022/07/06 06:00:32;;;;;;;1.47;0.90;;;;;;;15.59;100.00;102415.97;5020896;28;20188;-71
2022/07/06 06:02:58;;;;;;;1.30;0.63;;;;;;;15.63;100.00;102415.59;5020921;28;20191;-71
2022/07/06 06:05:24;;;;;;;2.43;0.80;;;;;;;15.45;100.00;102408.75;5023530;28;20189;-71
2022/07/06 06:07:51;;;;;;;2.63;0.70;;;;;;;15.64;100.00;102425.38;5025729;28;20504;-72
2022/07/06 06:10:18;;;;;;;4.07;1.27;;;;;;;15.31;100.00;102415.06;5024698;28;20699;-72
2022/07/06 06:12:44;;;;;;;2.53;0.70;;;;;;;15.51;100.00;102404.47;5024006;28;20439;-72
2022/07/06 06:15:11;;;;;;;1.20;0.80;;;;;;;15.66;100.00;102431.44;5025298;28;20457;-71
2022/07/06 06:17:38;;;;;;;4.13;0.83;;;;;;;15.32;100.00;102385.13;5019492;28;20895;-71
2022/07/06 06:20:08;;;;;;;6.07;0.90;;;;;;;15.58;100.00;102422.41;5018470;28;20455;-72
2022/07/06 06:22:51;;;;;;;2.03;0.70;;;;;;;15.69;100.00;102436.47;5020536;28;20449;-72
2022/07/06 06:25:19;;;;;;;1.80;1.03;;;;;;;15.64;100.00;102438.88;5020724;28;20443;-73
2022/07/06 06:27:45;;;;;;;3.27;0.70;;;;;;;15.65;100.00;102432.44;5019081;28;20481;-71
2022/07/06 06:30:12;;;;;;;2.23;0.70;;;;;;;15.53;100.00;102434.81;5024341;28;20419;-72
2022/07/06 06:32:37;;;;;;;2.30;0.80;;;;;;;15.56;100.00;102443.41;5023502;28;20911;-73
2022/07/06 06:35:04;;;;;;;4.17;0.97;;;;;;;15.23;100.00;102386.28;5021268;28;20442;-73
2022/07/06 06:37:30;;;;;;;1.30;0.70;;;;;;;15.56;100.00;102446.13;5023669;28;20201;-72
2022/07/06 06:39:55;;;;;;;4.10;0.87;;;;;;;15.60;100.00;102452.81;5020553;28;20560;-73
2022/07/06 06:42:21;;;;;;;3.07;0.77;;;;;;;15.62;100.00;102444.47;5016715;28;20399;-72
2022/07/06 06:44:46;;;;;;;2.03;0.70;;;;;;;15.43;100.00;102424.34;5017126;28;20657;-71
2022/07/06 06:47:11;;;;;;;5.67;1.53;;;;;;;15.71;100.00;102446.09;5021269;28;20275;-74
2022/07/06 06:49:37;;;;;;;3.20;0.80;;;;;;;15.64;100.00;102428.06;5006755;28;20180;-74
2022/07/06 06:52:02;;;;;;;3.30;0.80;;;;;;;15.73;100.00;102459.41;5023754;28;20653;-74
2022/07/06 06:54:28;;;;;;;2.80;0.60;;;;;;;15.76;100.00;102462.53;5020707;28;20188;-74
2022/07/06 06:56:53;;;;;;;3.03;0.80;;;;;;;15.64;100.00;102433.47;5023339;28;20803;-74
2022/07/06 06:59:19;;;;;;;2.67;0.77;;;;;;;15.93;100.00;102465.81;5023968;28;20181;-74
2022/07/06 07:01:44;;;;;;;3.17;1.00;;;;;;;15.77;100.00;102463.41;5021079;28;20268;-74
2022/07/06 07:04:10;;;;;;;3.37;0.77;;;;;;;15.93;100.00;102451.47;5018941;28;20397;-74
2022/07/06 07:06:35;;;;;;;2.30;1.37;;;;;;;15.86;100.00;102407.28;5020817;28;20681;-72
2022/07/06 07:09:01;;;;;;;2.57;0.97;;;;;;;16.13;100.00;102441.63;5010702;28;20192;-72
2022/07/06 07:11:26;;;;;;;2.40;0.93;;;;;;;15.99;100.00;102394.69;5020259;28;20189;-70
2022/07/06 07:13:52;;;;;;;2.60;0.70;;;;;;;15.96;100.00;102402.34;5003892;28;20226;-71
2022/07/06 07:16:17;;;;;;;1.37;0.87;;;;;;;16.31;100.00;102451.97;5019227;28;20580;-71
2022/07/06 07:18:42;;;;;;;1.70;0.90;;;;;;;16.39;100.00;102432.84;5019982;28;20701;-71
2022/07/06 07:21:08;;;;;;;2.90;0.70;;;;;;;16.55;100.00;102450.69;5000511;28;20230;-72
2022/07/06 07:23:33;;;;;;;3.27;0.70;;;;;;;16.50;100.00;102442.31;5017630;28;20285;-72
2022/07/06 07:25:58;;;;;;;1.63;0.70;;;;;;;16.42;100.00;102453.28;5019314;28;20217;-71
2022/07/06 07:28:24;;;;;;;1.13;0.57;;;;;;;16.22;100.00;102420.66;5017247;28;20212;-70
2022/07/06 07:30:50;;;;;;;2.00;0.63;;;;;;;16.45;100.00;102450.19;5009302;28;20257;-72
2022/07/06 07:33:16;;;;;;;2.50;0.60;;;;;;;16.04;100.00;102426.56;5012448;28;20279;-71
2022/07/06 07:35:41;;;;;;;1.90;0.60;;;;;;;15.88;100.00;102434.97;5001997;28;20871;-71
2022/07/06 07:38:06;;;;;;;0.90;0.60;;;;;;;16.00;100.00;102480.25;5020560;28;20216;-71
2022/07/06 07:40:33;;;;;;;2.20;0.60;;;;;;;15.95;100.00;102460.22;5021855;28;20192;-70
2022/07/06 07:42:58;;;;;;;1.10;0.60;;;;;;;15.99;100.00;102480.44;5017639;28;20196;-71
2022/07/06 07:45:24;;;;;;;2.13;0.63;;;;;;;16.16;100.00;102478.31;5017616;28;20514;-70
2022/07/06 07:47:49;;;;;;;0.90;0.57;;;;;;;16.20;100.00;102476.88;5013299;28;20246;-71
2022/07/06 07:50:15;;;;;;;1.77;0.63;;;;;;;16.06;100.00;102461.59;5014777;28;20202;-71
2022/07/06 07:52:40;;;;;;;1.13;0.50;;;;;;;16.15;100.00;102468.53;5015757;28;20659;-70
2022/07/06 07:55:06;;;;;;;1.20;0.60;;;;;;;15.87;100.00;102426.03;5018520;28;20369;-71
2022/07/06 07:57:31;;;;;;;1.17;0.60;;;;;;;16.12;100.00;102468.91;5020667;28;20223;-71
2022/07/06 07:59:57;;;;;;;1.63;0.70;;;;;;;16.19;100.00;102443.53;5012654;28;20571;-71
2022/07/06 08:02:22;;;;;;;3.00;0.90;;;;;;;16.53;100.00;102479.81;5004089;28;20207;-71
2022/07/06 08:04:47;;;;;;;1.93;0.70;;;;;;;16.63;100.00;102468.63;5018574;28;20762;-71
2022/07/06 08:07:13;;;;;;;0.90;0.63;;;;;;;16.67;100.00;102470.75;5017880;28;20220;-71
2022/07/06 08:09:39;;;;;;;1.33;0.63;;;;;;;16.56;100.00;102437.97;5003264;28;20641;-71
2022/07/06 08:12:04;;;;;;;1.77;0.77;;;;;;;16.90;100.00;102475.06;5021895;28;20191;-71
2022/07/06 08:14:30;;;;;;;2.77;0.67;;;;;;;16.94;100.00;102454.66;5016926;28;20181;-71
2022/07/06 08:16:56;;;;;;;1.60;0.67;;;;;;;17.35;100.00;102465.41;5020208;28;20219;-71
2022/07/06 08:19:22;;;;;;;2.53;0.70;;;;;;;17.11;100.00;102417.19;5020199;28;20224;-71
2022/07/06 08:21:47;;;;;;;1.27;0.77;;;;;;;17.48;100.00;102461.09;5020021;28;20486;-70
2022/07/06 08:24:12;;;;;;;1.20;0.67;;;;;;;17.38;100.00;102450.63;5017490;28;20541;-72
2022/07/06 08:26:38;;;;;;;1.43;0.60;;;;;;;17.49;100.00;102460.03;5015021;28;20217;-71
2022/07/06 08:29:04;;;;;;;2.07;0.60;;;;;;;17.08;100.00;102385.88;5018892;28;20199;-71
2022/07/06 08:31:29;;;;;;;0.93;0.50;;;;;;;17.41;100.00;102450.22;5010891;28;20189;-71
2022/07/06 08:33:55;;;;;;;0.70;0.50;;;;;;;17.58;100.00;102450.66;5013927;28;20454;-72
2022/07/06 08:36:22;;;;;;;1.87;0.60;;;;;;;17.55;100.00;102446.47;5019111;28;20637;-71
2022/07/06 08:38:48;;;;;;;2.50;0.50;;;;;;;17.01;100.00;102389.63;5013583;28;20496;-71
2022/07/06 08:41:15;;;;;;;2.53;0.87;;;;;;;17.19;100.00;102435.97;5012455;28;20443;-72
2022/07/06 08:43:41;;;;;;;3.77;0.60;;;;;;;17.28;100.00;102458.31;5006110;28;20463;-72
2022/07/06 08:46:07;;;;;;;3.17;0.77;;;;;;;17.51;100.00;102460.69;5006516;28;20566;-72
2022/07/06 08:48:40;;;;;;;1.50;0.60;;;;;;;17.01;100.00;102455.53;5008739;28;20265;-72
2022/07/06 08:51:05;;;;;;;4.03;0.87;;;;;;;17.30;100.00;102464.38;5017640;28;20514;-71
2022/07/06 08:53:31;;;;;;;1.47;0.60;;;;;;;17.44;100.00;102459.81;5019598;28;20525;-71
2022/07/06 08:55:57;;;;;;;2.20;0.63;;;;;;;17.56;100.00;102463.59;5020453;28;20253;-71
2022/07/06 08:58:27;;;;;;;1.07;0.50;;;;;;;17.93;100.00;102455.94;5013473;28;20959;-71
2022/07/06 09:00:56;;;;;;;1.90;0.70;;;;;;;17.87;100.00;102460.34;5008180;28;20734;-71
2022/07/06 09:03:23;;;;;;;3.10;1.10;;;;;;;17.21;100.00;102447.44;5009502;28;20929;-71
2022/07/06 09:05:51;;;;;;;1.60;0.80;;;;;;;17.31;100.00;102466.06;5013109;28;20530;-72
2022/07/06 09:08:18;;;;;;;5.03;0.70;;;;;;;16.67;100.00;102373.22;5010334;28;20845;-71
2022/07/06 09:10:43;;;;;;;2.20;0.70;;;;;;;17.14;100.00;102439.28;5015505;28;20442;-70
2022/07/06 09:13:09;;;;;;;7.57;1.57;;;;;;;17.34;100.00;102455.63;5015864;28;20447;-72
2022/07/06 09:15:38;;;;;;;1.80;0.80;;;;;;;17.08;100.00;102429.25;5015909;28;20215;-71
2022/07/06 09:18:04;;;;;;;2.60;0.97;;;;;;;17.78;100.00;102467.00;5009432;28;20226;-71
2022/07/06 09:20:30;;;;;;;1.50;0.60;;;;;;;17.93;100.00;102469.53;5000497;28;20424;-71
2022/07/06 09:23:00;;;;;;;2.10;0.80;;;;;;;18.00;100.00;102462.22;5018497;28;20518;-72
2022/07/06 09:25:26;;;;;;;2.43;0.70;;;;;;;17.77;100.00;102463.44;5018577;28;20181;-71
2022/07/06 09:27:55;;;;;;;2.93;0.80;;;;;;;17.68;100.00;102467.41;5018075;28;20460;-72
2022/07/06 09:30:22;;;;;;;4.17;0.90;;;;;;;17.71;100.00;102482.44;5002761;28;20940;-72
2022/07/06 09:32:50;;;;;;;2.63;0.87;;;;;;;17.65;100.00;102472.38;5020913;28;20457;-71
2022/07/06 09:35:24;;;;;;;3.50;0.83;;;;;;;17.33;100.00;102462.09;5019778;28;20428;-71
2022/07/06 09:38:10;;;;;;;2.60;0.63;;;;;;;17.44;100.00;102471.50;5019658;28;20451;-72
2022/07/06 09:40:39;;;;;;;1.40;0.60;;;;;;;17.80;100.00;102468.47;5020873;28;20850;-70
2022/07/06 09:43:16;;;;;;;3.67;0.60;;;;;;;17.85;100.00;102470.59;5021653;28;20466;-72
2022/07/06 09:45:53;;;;;;;2.97;0.90;;;;;;;17.55;100.00;102461.94;5020462;28;20489;-71
2022/07/06 09:48:21;;;;;;;2.77;0.60;;;;;;;17.50;100.00;102475.28;5020225;28;20461;-71
2022/07/06 09:50:54;;;;;;;1.27;0.60;;;;;;;17.89;100.00;102474.53;5020928;28;20515;-72
2022/07/06 09:53:22;;;;;;;2.10;0.80;;;;;;;17.89;100.00;102465.56;5021087;28;20435;-71
2022/07/06 09:55:49;;;;;;;2.43;0.60;;;;;;;18.22;100.00;102470.97;5020455;28;20572;-71
2022/07/06 09:58:15;;;;;;;1.27;0.63;;;;;;;18.07;100.00;102439.44;5019614;28;20450;-71
2022/07/06 10:00:42;;;;;;;1.33;0.70;;;;;;;18.27;100.00;102461.16;5018764;28;20420;-72
2022/07/06 10:03:08;;;;;;;5.40;0.60;;;;;;;17.88;100.00;102469.31;5020202;28;20419;-71
2022/07/06 10:05:38;;;;;;;4.47;0.60;;;;;;;18.12;100.00;102468.69;5005597;28;20775;-72
2022/07/06 10:08:05;;;;;;;2.20;0.80;;;;;;;18.37;100.00;102468.03;5018311;28;20510;-71
2022/07/06 10:10:32;;;;;;;2.30;0.60;;;;;;;18.30;100.00;102473.47;5004600;28;20436;-71
2022/07/06 10:12:59;;;;;;;3.60;0.80;;;;;;;17.68;100.00;102453.81;5020178;28;20423;-73
2022/07/06 10:15:31;;;;;;;3.33;0.80;;;;;;;17.92;100.00;102470.56;5019450;28;20470;-71
2022/07/06 10:17:57;;;;;;;0.60;0.43;;;;;;;18.19;100.00;102450.50;5018770;28;20470;-72
2022/07/06 10:20:24;;;;;;;1.10;0.60;;;;;;;18.47;100.00;102435.84;5020256;28;20432;-71
2022/07/06 10:22:50;;;;;;;2.20;0.60;;;;;;;18.69;100.00;102459.00;5020994;28;20426;-72
2022/07/06 10:25:17;;;;;;;3.10;0.70;;;;;;;18.40;100.00;102459.47;5020445;28;20674;-71
2022/07/06 10:27:43;;;;;;;3.00;0.70;;;;;;;18.13;100.00;102453.22;5020594;23;20507;-71
2022/07/06 10:30:09;;;;;;;1.60;0.70;;;;;;;18.28;100.00;102451.97;5003486;28;20429;-69
2022/07/06 10:32:36;;;;;;;1.13;0.60;;;;;;;18.26;100.00;102418.75;4988508;28;20432;-71
2022/07/06 10:35:02;;;;;;;2.40;0.70;;;;;;;18.42;100.00;102457.38;5004120;28;20432;-70
2022/07/06 10:37:28;;;;;;;1.63;0.70;;;;;;;18.62;100.00;102428.28;5000139;28;20445;-71
2022/07/06 10:42:59;;;;;;;4.20;0.70;;;;;;;18.19;100.00;102417.91;4996812;28;20459;-71
2022/07/06 10:45:27;;;;;;;2.37;0.73;;;;;;;18.25;100.00;102451.53;4985103;28;20420;-72
2022/07/06 10:48:11;;;;;;;3.90;1.03;;;;;;;18.35;100.00;102454.69;4994108;28;20493;-72
2022/07/06 10:50:50;;;;;;;6.23;0.87;;;;;;;18.56;100.00;102442.72;4999504;28;20547;-71
2022/07/06 10:53:20;;;;;;;3.30;0.67;;;;;;;17.91;100.00;102341.34;4999052;28;20439;-70
2022/07/06 10:55:50;;;;;;;2.63;0.60;;;;;;;18.78;100.00;102432.44;4999348;28;20416;-70
2022/07/06 10:58:34;;;;;;;3.77;0.87;;;;;;;18.50;100.00;102436.25;4999885;28;20464;-72
2022/07/06 11:01:00;;;;;;;4.40;0.90;;;;;;;18.59;100.00;102428.69;5000042;28;20927;-71
2022/07/06 11:03:37;;;;;;;4.63;0.80;;;;;;;18.78;100.00;102428.91;4998969;28;20447;-72
2022/07/06 11:06:20;;;;;;;1.60;0.73;;;;;;;18.64;100.00;102409.88;5000072;28;20467;-72
2022/07/06 11:08:59;;;;;;;2.20;0.90;;;;;;;18.57;100.00;102425.34;4999218;28;20448;-74
2022/07/06 11:11:30;;;;;;;1.67;0.63;;;;;;;18.99;100.00;102397.84;4997992;28;20477;-69
2022/07/06 11:14:11;;;;;;;11.33;0.80;;;;;;;18.89;100.00;102439.06;4999386;28;20440;-72
2022/07/06 11:16:38;;;;;;;3.23;0.70;;;;;;;18.74;100.00;102402.13;5001245;28;20889;-71
2022/07/06 11:19:11;;;;;;;1.20;0.60;;;;;;;18.74;100.00;102418.44;4999426;28;20416;-69
2022/07/06 11:21:38;;;;;;;1.30;0.67;;;;;;;18.84;100.00;102422.59;5001054;28;20455;-70
2022/07/06 11:24:05;;;;;;;2.43;0.80;;;;;;;18.88;100.00;102426.53;4998435;28;20507;-71